sensor_id;sensor_type;location;lat;lon;timestamp;pressure;altitude;pressure_sealevel;temperature;humidity
59043;BME280;44826;51.596;5.624;2023-07-29T00:01:54;100633.03;;;18.43;89.13
59043;BME280;44826;51.596;5.624;2023-07-29T00:04:54;100624.75;;;18.34;89.35
59043;BME280;44826;51.596;5.624;2023-07-29T00:13:18;100605.38;;;18.21;92.02
59043;BME280;44826;51.596;5.624;2023-07-29T00:16:32;100599.06;;;18.24;91.39
59043;BME280;44826;51.596;5.624;2023-07-29T00:19:13;100597.31;;;18.24;91.73
59043;BME280;44826;51.596;5.624;2023-07-29T00:21:59;100591.28;;;18.22;92.48
59043;BME280;44826;51.596;5.624;2023-07-29T00:25:08;100585.06;;;18.23;91.21
59043;BME280;44826;51.596;5.624;2023-07-29T00:41:57;100606.16;;;18.23;93.99
59043;BME280;44826;51.596;5.624;2023-07-29T00:57:50;100579.81;;;18.23;93.69
59043;BME280;44826;51.596;5.624;2023-07-29T01:00:54;100586.97;;;18.21;93.98
59043;BME280;44826;51.596;5.624;2023-07-29T01:13:49;100590.72;;;18.17;91.54
59043;BME280;44826;51.596;5.624;2023-07-29T01:17:09;100584.34;;;18.07;93.66
59043;BME280;44826;51.596;5.624;2023-07-29T01:23:15;100584.59;;;18.02;95.27
59043;BME280;44826;51.596;5.624;2023-07-29T01:29:54;100576.06;;;17.98;94.57
59043;BME280;44826;51.596;5.624;2023-07-29T01:46:38;100592.19;;;17.92;95.19
59043;BME280;44826;51.596;5.624;2023-07-29T01:49:36;100582.03;;;17.86;96.02
59043;BME280;44826;51.596;5.624;2023-07-29T02:36:44;100571.78;;;17.67;95.41
59043;BME280;44826;51.596;5.624;2023-07-29T03:26:20;100564.88;;;17.35;91.04
59043;BME280;44826;51.596;5.624;2023-07-29T04:22:03;100544.72;;;16.73;90.03
59043;BME280;44826;51.596;5.624;2023-07-29T04:24:59;100537.84;;;16.71;89.83
59043;BME280;44826;51.596;5.624;2023-07-29T04:28:03;100544.97;;;16.68;90.25
59043;BME280;44826;51.596;5.624;2023-07-29T04:38:19;100594.03;;;16.68;89.88
59043;BME280;44826;51.596;5.624;2023-07-29T04:58:40;100597.59;;;16.67;90.32
59043;BME280;44826;51.596;5.624;2023-07-29T05:16:25;100600.63;;;16.75;89.75
59043;BME280;44826;51.596;5.624;2023-07-29T06:15:36;100616.88;;;17.30;87.08
59043;BME280;44826;51.596;5.624;2023-07-29T06:33:37;100619.03;;;17.68;86.28
59043;BME280;44826;51.596;5.624;2023-07-29T06:38:42;100616.78;;;17.77;86.79
59043;BME280;44826;51.596;5.624;2023-07-29T06:41:28;100621.09;;;17.78;85.17
59043;BME280;44826;51.596;5.624;2023-07-29T06:43:53;100626.59;;;17.74;85.15
59043;BME280;44826;51.596;5.624;2023-07-29T06:46:21;100627.50;;;17.73;84.93
59043;BME280;44826;51.596;5.624;2023-07-29T06:48:50;100636.34;;;17.72;85.88
59043;BME280;44826;51.596;5.624;2023-07-29T06:51:17;100630.16;;;17.73;85.65
59043;BME280;44826;51.596;5.624;2023-07-29T06:53:42;100635.41;;;17.73;85.56
59043;BME280;44826;51.596;5.624;2023-07-29T06:58:53;100628.28;;;17.75;86.31
59043;BME280;44826;51.596;5.624;2023-07-29T07:01:19;100626.19;;;17.81;87.14
59043;BME280;44826;51.596;5.624;2023-07-29T07:03:44;100637.19;;;17.87;86.37
59043;BME280;44826;51.596;5.624;2023-07-29T07:06:17;100630.94;;;17.90;86.14
59043;BME280;44826;51.596;5.624;2023-07-29T07:08:42;100632.41;;;17.94;85.08
59043;BME280;44826;51.596;5.624;2023-07-29T07:11:14;100637.50;;;17.97;85.90
59043;BME280;44826;51.596;5.624;2023-07-29T07:20:23;100651.25;;;18.31;84.81
59043;BME280;44826;51.596;5.624;2023-07-29T07:28:04;100650.13;;;18.50;83.37
59043;BME280;44826;51.596;5.624;2023-07-29T07:30:40;100642.78;;;18.55;84.06
59043;BME280;44826;51.596;5.624;2023-07-29T07:33:11;100646.38;;;18.54;83.61
59043;BME280;44826;51.596;5.624;2023-07-29T07:35:47;100650.50;;;18.58;84.66
59043;BME280;44826;51.596;5.624;2023-07-29T07:38:22;100658.22;;;18.61;84.04
59043;BME280;44826;51.596;5.624;2023-07-29T07:41:04;100656.44;;;18.62;83.77
59043;BME280;44826;51.596;5.624;2023-07-29T07:43:39;100662.34;;;18.65;83.18
59043;BME280;44826;51.596;5.624;2023-07-29T07:46:07;100669.13;;;18.70;83.46
59043;BME280;44826;51.596;5.624;2023-07-29T07:51:44;100664.59;;;18.72;81.63
59043;BME280;44826;51.596;5.624;2023-07-29T07:54:09;100669.88;;;18.72;81.54
59043;BME280;44826;51.596;5.624;2023-07-29T07:56:35;100669.88;;;18.72;81.47
59043;BME280;44826;51.596;5.624;2023-07-29T07:59:00;100676.66;;;18.76;81.17
59043;BME280;44826;51.596;5.624;2023-07-29T08:01:39;100678.88;;;18.82;81.45
59043;BME280;44826;51.596;5.624;2023-07-29T08:04:04;100674.34;;;18.84;81.42
59043;BME280;44826;51.596;5.624;2023-07-29T08:06:33;100669.53;;;18.91;81.55
59043;BME280;44826;51.596;5.624;2023-07-29T08:09:10;100667.19;;;19.01;82.01
59043;BME280;44826;51.596;5.624;2023-07-29T08:11:46;100663.97;;;19.10;81.77
59043;BME280;44826;51.596;5.624;2023-07-29T08:14:33;100674.88;;;19.18;80.98
59043;BME280;44826;51.596;5.624;2023-07-29T08:17:16;100668.25;;;19.25;80.90
59043;BME280;44826;51.596;5.624;2023-07-29T08:19:54;100660.34;;;19.25;79.64
59043;BME280;44826;51.596;5.624;2023-07-29T08:22:20;100653.38;;;19.24;78.69
59043;BME280;44826;51.596;5.624;2023-07-29T08:24:45;100664.69;;;19.26;78.85
59043;BME280;44826;51.596;5.624;2023-07-29T08:27:10;100673.34;;;19.29;78.48
59043;BME280;44826;51.596;5.624;2023-07-29T08:29:36;100676.50;;;19.34;78.74
59043;BME280;44826;51.596;5.624;2023-07-29T08:32:01;100674.41;;;19.39;78.71
59043;BME280;44826;51.596;5.624;2023-07-29T08:34:26;100671.47;;;19.44;77.84
59043;BME280;44826;51.596;5.624;2023-07-29T08:36:52;100672.31;;;19.44;78.16
59043;BME280;44826;51.596;5.624;2023-07-29T08:39:17;100676.00;;;19.41;76.40
59043;BME280;44826;51.596;5.624;2023-07-29T08:41:57;100674.59;;;19.36;76.49
59043;BME280;44826;51.596;5.624;2023-07-29T08:44:30;100672.41;;;19.30;77.93
59043;BME280;44826;51.596;5.624;2023-07-29T08:46:56;100668.16;;;19.27;78.24
59043;BME280;44826;51.596;5.624;2023-07-29T08:49:23;100668.06;;;19.29;77.51
59043;BME280;44826;51.596;5.624;2023-07-29T08:51:49;100664.38;;;19.31;79.32
59043;BME280;44826;51.596;5.624;2023-07-29T08:54:15;100669.34;;;19.36;78.52
59043;BME280;44826;51.596;5.624;2023-07-29T08:56:41;100673.28;;;19.43;77.70
59043;BME280;44826;51.596;5.624;2023-07-29T08:59:08;100668.53;;;19.48;77.21
59043;BME280;44826;51.596;5.624;2023-07-29T09:01:33;100661.16;;;19.53;77.64
59043;BME280;44826;51.596;5.624;2023-07-29T09:03:59;100669.63;;;19.59;77.16
59043;BME280;44826;51.596;5.624;2023-07-29T09:06:24;100666.53;;;19.65;76.91
59043;BME280;44826;51.596;5.624;2023-07-29T09:08:55;100661.81;;;19.70;75.09
59043;BME280;44826;51.596;5.624;2023-07-29T09:11:24;100666.91;;;19.73;74.77
59043;BME280;44826;51.596;5.624;2023-07-29T09:13:52;100655.28;;;19.76;75.59
59043;BME280;44826;51.596;5.624;2023-07-29T09:16:18;100649.03;;;19.77;75.37
59043;BME280;44826;51.596;5.624;2023-07-29T09:18:47;100653.28;;;19.79;74.11
59043;BME280;44826;51.596;5.624;2023-07-29T09:21:15;100654.88;;;19.82;75.95
59043;BME280;44826;51.596;5.624;2023-07-29T09:23:44;100660.03;;;19.83;76.15
59043;BME280;44826;51.596;5.624;2023-07-29T09:26:10;100661.72;;;19.84;76.08
59043;BME280;44826;51.596;5.624;2023-07-29T09:28:37;100650.22;;;19.85;75.24
59043;BME280;44826;51.596;5.624;2023-07-29T09:31:03;100640.81;;;19.81;74.89
59043;BME280;44826;51.596;5.624;2023-07-29T09:33:30;100646.31;;;19.78;74.78
59043;BME280;44826;51.596;5.624;2023-07-29T09:35:56;100640.81;;;19.81;77.77
59043;BME280;44826;51.596;5.624;2023-07-29T09:38:28;100645.78;;;19.86;76.21
59043;BME280;44826;51.596;5.624;2023-07-29T09:40:57;100640.09;;;19.92;75.56
59043;BME280;44826;51.596;5.624;2023-07-29T09:43:29;100643.41;;;19.96;75.36
59043;BME280;44826;51.596;5.624;2023-07-29T09:45:55;100646.47;;;20.02;74.17
59043;BME280;44826;51.596;5.624;2023-07-29T09:48:23;100641.59;;;20.09;73.63
59043;BME280;44826;51.596;5.624;2023-07-29T09:50:48;100639.91;;;20.21;75.16
59043;BME280;44826;51.596;5.624;2023-07-29T09:53:14;100648.88;;;20.31;73.56
59043;BME280;44826;51.596;5.624;2023-07-29T09:55:39;100651.31;;;20.35;72.27
59043;BME280;44826;51.596;5.624;2023-07-29T09:58:05;100644.94;;;20.37;71.49
59043;BME280;44826;51.596;5.624;2023-07-29T10:00:33;100656.38;;;20.38;72.45
59043;BME280;44826;51.596;5.624;2023-07-29T10:02:59;100649.06;;;20.41;72.04
59043;BME280;44826;51.596;5.624;2023-07-29T10:05:26;100652.44;;;20.43;71.77
59043;BME280;44826;51.596;5.624;2023-07-29T10:07:52;100654.03;;;20.46;71.85
59043;BME280;44826;51.596;5.624;2023-07-29T10:10:19;100661.13;;;20.45;72.05
59043;BME280;44826;51.596;5.624;2023-07-29T10:12:45;100658.34;;;20.47;72.83
59043;BME280;44826;51.596;5.624;2023-07-29T10:15:11;100660.91;;;20.49;72.14
59043;BME280;44826;51.596;5.624;2023-07-29T10:17:37;100665.94;;;20.52;72.12
59043;BME280;44826;51.596;5.624;2023-07-29T10:20:07;100653.59;;;20.52;71.85
59043;BME280;44826;51.596;5.624;2023-07-29T10:22:42;100656.97;;;20.54;71.63
59043;BME280;44826;51.596;5.624;2023-07-29T10:25:38;100646.81;;;20.61;73.17
59043;BME280;44826;51.596;5.624;2023-07-29T10:28:05;100647.22;;;20.68;71.29
59043;BME280;44826;51.596;5.624;2023-07-29T10:30:31;100636.84;;;20.77;73.22
59043;BME280;44826;51.596;5.624;2023-07-29T10:33:04;100651.59;;;20.93;72.13
59043;BME280;44826;51.596;5.624;2023-07-29T10:35:32;100642.03;;;21.03;71.82
59043;BME280;44826;51.596;5.624;2023-07-29T10:37:59;100636.09;;;21.13;72.62
59043;BME280;44826;51.596;5.624;2023-07-29T10:40:24;100641.63;;;21.21;72.21
59043;BME280;44826;51.596;5.624;2023-07-29T10:43:11;100632.66;;;21.23;71.77
59043;BME280;44826;51.596;5.624;2023-07-29T10:45:38;100633.69;;;21.21;70.68
59043;BME280;44826;51.596;5.624;2023-07-29T10:50:35;100636.41;;;21.32;70.87
59043;BME280;44826;51.596;5.624;2023-07-29T10:53:01;100630.63;;;21.38;67.76
59043;BME280;44826;51.596;5.624;2023-07-29T10:55:36;100630.19;;;21.45;67.89
59043;BME280;44826;51.596;5.624;2023-07-29T10:58:13;100633.72;;;21.57;68.29
59043;BME280;44826;51.596;5.624;2023-07-29T11:00:41;100633.16;;;21.64;66.82
59043;BME280;44826;51.596;5.624;2023-07-29T11:03:08;100628.97;;;21.73;67.90
59043;BME280;44826;51.596;5.624;2023-07-29T11:05:49;100627.16;;;21.74;68.09
59043;BME280;44826;51.596;5.624;2023-07-29T11:08:20;100622.56;;;21.64;66.19
59043;BME280;44826;51.596;5.624;2023-07-29T11:11:07;100632.84;;;21.56;68.23
59043;BME280;44826;51.596;5.624;2023-07-29T11:13:34;100625.13;;;21.42;68.04
59043;BME280;44826;51.596;5.624;2023-07-29T11:16:00;100626.03;;;21.29;67.64
59043;BME280;44826;51.596;5.624;2023-07-29T11:18:27;100634.66;;;21.20;66.65
59043;BME280;44826;51.596;5.624;2023-07-29T11:20:54;100629.84;;;21.14;67.31
59043;BME280;44826;51.596;5.624;2023-07-29T11:23:27;100628.50;;;21.08;68.58
59043;BME280;44826;51.596;5.624;2023-07-29T11:25:54;100620.88;;;21.03;68.94
59043;BME280;44826;51.596;5.624;2023-07-29T11:28:20;100626.41;;;21.00;68.78
59043;BME280;44826;51.596;5.624;2023-07-29T11:30:47;100627.47;;;20.98;68.98
59043;BME280;44826;51.596;5.624;2023-07-29T11:33:12;100631.06;;;20.97;69.23
59043;BME280;44826;51.596;5.624;2023-07-29T11:35:37;100632.75;;;20.98;69.75
59043;BME280;44826;51.596;5.624;2023-07-29T11:38:03;100618.69;;;20.97;69.20
59043;BME280;44826;51.596;5.624;2023-07-29T11:40:29;100624.94;;;20.96;69.60
59043;BME280;44826;51.596;5.624;2023-07-29T11:42:54;100624.72;;;20.99;70.28
59043;BME280;44826;51.596;5.624;2023-07-29T11:45:21;100636.66;;;21.05;70.25
59043;BME280;44826;51.596;5.624;2023-07-29T11:47:46;100631.53;;;21.15;70.87
59043;BME280;44826;51.596;5.624;2023-07-29T11:50:13;100634.72;;;21.31;70.44
59043;BME280;44826;51.596;5.624;2023-07-29T11:52:46;100637.69;;;21.51;71.18
59043;BME280;44826;51.596;5.624;2023-07-29T11:55:13;100644.22;;;21.70;70.64
59043;BME280;44826;51.596;5.624;2023-07-29T11:57:39;100641.41;;;21.84;67.86
59043;BME280;44826;51.596;5.624;2023-07-29T12:00:07;100635.97;;;21.97;67.87
59043;BME280;44826;51.596;5.624;2023-07-29T12:02:36;100632.72;;;22.05;65.88
59043;BME280;44826;51.596;5.624;2023-07-29T12:05:04;100626.72;;;22.03;65.11
59043;BME280;44826;51.596;5.624;2023-07-29T12:07:29;100623.94;;;21.93;64.55
59043;BME280;44826;51.596;5.624;2023-07-29T12:09:58;100615.38;;;21.78;65.03
59043;BME280;44826;51.596;5.624;2023-07-29T12:12:24;100614.50;;;21.66;66.65
59043;BME280;44826;51.596;5.624;2023-07-29T12:14:49;100624.19;;;21.54;66.40
59043;BME280;44826;51.596;5.624;2023-07-29T12:17:15;100635.47;;;21.45;66.30
59043;BME280;44826;51.596;5.624;2023-07-29T12:19:41;100624.88;;;21.33;66.07
59043;BME280;44826;51.596;5.624;2023-07-29T12:22:10;100624.06;;;21.20;66.47
59043;BME280;44826;51.596;5.624;2023-07-29T12:24:37;100641.81;;;21.06;67.05
59043;BME280;44826;51.596;5.624;2023-07-29T12:27:03;100672.53;;;20.96;71.57
59043;BME280;44826;51.596;5.624;2023-07-29T12:29:29;100704.94;;;20.74;74.02
59043;BME280;44826;51.596;5.624;2023-07-29T12:31:59;100689.03;;;20.24;75.11
59043;BME280;44826;51.596;5.624;2023-07-29T12:34:26;100690.28;;;19.65;77.10
59043;BME280;44826;51.596;5.624;2023-07-29T12:36:52;100698.53;;;19.33;78.71
59043;BME280;44826;51.596;5.624;2023-07-29T12:41:42;100707.38;;;18.90;79.57
59043;BME280;44826;51.596;5.624;2023-07-29T12:44:08;100705.16;;;18.84;83.41
59043;BME280;44826;51.596;5.624;2023-07-29T12:46:33;100715.78;;;18.82;85.37
59043;BME280;44826;51.596;5.624;2023-07-29T12:48:58;100703.53;;;18.81;86.06
59043;BME280;44826;51.596;5.624;2023-07-29T12:51:24;100699.22;;;18.80;86.98
59043;BME280;44826;51.596;5.624;2023-07-29T12:53:49;100689.34;;;18.84;87.82
59043;BME280;44826;51.596;5.624;2023-07-29T12:56:14;100691.69;;;18.88;88.01
59043;BME280;44826;51.596;5.624;2023-07-29T12:58:39;100693.19;;;18.92;88.01
59043;BME280;44826;51.596;5.624;2023-07-29T13:01:05;100696.38;;;18.98;86.88
59043;BME280;44826;51.596;5.624;2023-07-29T13:03:30;100702.97;;;19.05;87.58
59043;BME280;44826;51.596;5.624;2023-07-29T13:05:55;100715.47;;;19.16;88.22
59043;BME280;44826;51.596;5.624;2023-07-29T13:08:20;100712.91;;;19.14;89.53
59043;BME280;44826;51.596;5.624;2023-07-29T13:10:46;100723.00;;;19.07;88.48
59043;BME280;44826;51.596;5.624;2023-07-29T13:13:11;100706.09;;;18.97;82.46
59043;BME280;44826;51.596;5.624;2023-07-29T13:15:36;100705.25;;;18.96;84.34
59043;BME280;44826;51.596;5.624;2023-07-29T13:18:01;100702.53;;;18.98;86.23
59043;BME280;44826;51.596;5.624;2023-07-29T13:20:27;100708.44;;;19.02;86.32
59043;BME280;44826;51.596;5.624;2023-07-29T13:22:52;100697.81;;;19.03;84.53
59043;BME280;44826;51.596;5.624;2023-07-29T13:25:18;100698.44;;;19.07;85.28
59043;BME280;44826;51.596;5.624;2023-07-29T13:27:43;100705.13;;;19.13;82.05
59043;BME280;44826;51.596;5.624;2023-07-29T13:30:08;100688.06;;;19.18;84.34
59043;BME280;44826;51.596;5.624;2023-07-29T13:32:34;100686.53;;;19.29;86.74
59043;BME280;44826;51.596;5.624;2023-07-29T13:34:59;100683.03;;;19.28;85.66
59043;BME280;44826;51.596;5.624;2023-07-29T13:37:24;100690.00;;;19.29;87.20
59043;BME280;44826;51.596;5.624;2023-07-29T13:39:50;100685.47;;;19.31;88.10
59043;BME280;44826;51.596;5.624;2023-07-29T13:42:15;100674.59;;;19.36;89.95
59043;BME280;44826;51.596;5.624;2023-07-29T13:44:40;100681.38;;;19.40;90.67
59043;BME280;44826;51.596;5.624;2023-07-29T13:47:05;100682.88;;;19.44;87.98
59043;BME280;44826;51.596;5.624;2023-07-29T13:49:31;100676.16;;;19.53;90.16
59043;BME280;44826;51.596;5.624;2023-07-29T13:51:57;100674.88;;;19.59;88.83
59043;BME280;44826;51.596;5.624;2023-07-29T13:54:22;100669.94;;;19.67;89.76
59043;BME280;44826;51.596;5.624;2023-07-29T13:56:47;100665.19;;;19.72;88.26
59043;BME280;44826;51.596;5.624;2023-07-29T13:59:12;100676.81;;;19.82;88.79
59043;BME280;44826;51.596;5.624;2023-07-29T14:01:38;100672.44;;;19.96;87.28
59043;BME280;44826;51.596;5.624;2023-07-29T14:04:03;100665.47;;;20.08;88.18
59043;BME280;44826;51.596;5.624;2023-07-29T14:06:29;100672.84;;;20.15;86.27
59043;BME280;44826;51.596;5.624;2023-07-29T14:08:54;100665.59;;;20.19;87.02
59043;BME280;44826;51.596;5.624;2023-07-29T14:11:20;100658.91;;;20.26;89.07
59043;BME280;44826;51.596;5.624;2023-07-29T14:13:45;100658.47;;;20.32;85.94
59043;BME280;44826;51.596;5.624;2023-07-29T14:16:10;100650.22;;;20.37;82.18
59043;BME280;44826;51.596;5.624;2023-07-29T14:18:35;100645.06;;;20.49;86.04
59043;BME280;44826;51.596;5.624;2023-07-29T14:21:00;100642.47;;;20.60;82.84
59043;BME280;44826;51.596;5.624;2023-07-29T14:23:26;100633.03;;;20.69;83.86
59043;BME280;44826;51.596;5.624;2023-07-29T14:25:51;100647.44;;;20.77;85.20
59043;BME280;44826;51.596;5.624;2023-07-29T14:28:16;100644.63;;;20.92;82.21
59043;BME280;44826;51.596;5.624;2023-07-29T14:30:42;100647.88;;;21.20;79.18
59043;BME280;44826;51.596;5.624;2023-07-29T14:33:07;100653.63;;;21.38;79.50
59043;BME280;44826;51.596;5.624;2023-07-29T14:35:33;100651.34;;;21.45;77.53
59043;BME280;44826;51.596;5.624;2023-07-29T14:37:58;100661.00;;;21.46;75.60
59043;BME280;44826;51.596;5.624;2023-07-29T14:40:23;100659.56;;;21.53;75.78
59043;BME280;44826;51.596;5.624;2023-07-29T14:42:48;100658.50;;;21.56;75.51
59043;BME280;44826;51.596;5.624;2023-07-29T14:45:14;100665.16;;;21.61;75.42
59043;BME280;44826;51.596;5.624;2023-07-29T14:47:39;100659.63;;;21.64;74.61
59043;BME280;44826;51.596;5.624;2023-07-29T14:50:04;100657.94;;;21.63;74.61
59043;BME280;44826;51.596;5.624;2023-07-29T14:52:30;100651.47;;;21.67;75.18
59043;BME280;44826;51.596;5.624;2023-07-29T14:54:55;100655.31;;;21.75;73.49
59043;BME280;44826;51.596;5.624;2023-07-29T14:57:20;100665.44;;;21.81;74.03
59043;BME280;44826;51.596;5.624;2023-07-29T14:59:46;100653.69;;;21.85;73.35
59043;BME280;44826;51.596;5.624;2023-07-29T15:02:12;100643.41;;;21.80;73.46
59043;BME280;44826;51.596;5.624;2023-07-29T15:04:37;100649.44;;;21.71;73.99
59043;BME280;44826;51.596;5.624;2023-07-29T15:07:02;100653.38;;;21.65;75.60
59043;BME280;44826;51.596;5.624;2023-07-29T15:09:28;100651.94;;;21.73;73.88
59043;BME280;44826;51.596;5.624;2023-07-29T15:11:53;100651.50;;;21.90;73.46
59043;BME280;44826;51.596;5.624;2023-07-29T15:14:19;100645.00;;;22.06;72.34
59043;BME280;44826;51.596;5.624;2023-07-29T15:16:44;100637.06;;;22.28;72.68
59043;BME280;44826;51.596;5.624;2023-07-29T15:19:09;100634.09;;;22.45;71.61
59043;BME280;44826;51.596;5.624;2023-07-29T15:21:34;100629.09;;;22.40;71.01
59043;BME280;44826;51.596;5.624;2023-07-29T15:24:00;100626.97;;;22.34;70.57
59043;BME280;44826;51.596;5.624;2023-07-29T15:26:25;100629.38;;;22.25;72.83
59043;BME280;44826;51.596;5.624;2023-07-29T15:28:51;100634.31;;;22.19;70.80
59043;BME280;44826;51.596;5.624;2023-07-29T15:31:17;100630.47;;;22.23;72.07
59043;BME280;44826;51.596;5.624;2023-07-29T15:33:42;100625.25;;;22.21;69.46
59043;BME280;44826;51.596;5.624;2023-07-29T15:36:08;100624.81;;;22.16;69.45
59043;BME280;44826;51.596;5.624;2023-07-29T15:38:33;100612.97;;;22.09;71.31
59043;BME280;44826;51.596;5.624;2023-07-29T15:41:00;100614.91;;;21.95;70.95
59043;BME280;44826;51.596;5.624;2023-07-29T15:43:25;100616.81;;;21.82;69.82
59043;BME280;44826;51.596;5.624;2023-07-29T15:45:51;100607.16;;;21.70;71.23
59043;BME280;44826;51.596;5.624;2023-07-29T15:48:16;100608.72;;;21.61;71.92
59043;BME280;44826;51.596;5.624;2023-07-29T15:50:42;100613.59;;;21.54;72.95
59043;BME280;44826;51.596;5.624;2023-07-29T15:53:07;100613.34;;;21.46;75.57
59043;BME280;44826;51.596;5.624;2023-07-29T15:55:32;100619.31;;;21.36;75.08
59043;BME280;44826;51.596;5.624;2023-07-29T15:57:58;100613.78;;;21.28;75.87
59043;BME280;44826;51.596;5.624;2023-07-29T16:00:23;100627.34;;;21.23;76.25
59043;BME280;44826;51.596;5.624;2023-07-29T16:02:49;100631.31;;;21.18;76.92
59043;BME280;44826;51.596;5.624;2023-07-29T16:05:14;100620.81;;;21.16;77.16
59043;BME280;44826;51.596;5.624;2023-07-29T16:07:40;100629.84;;;21.14;78.35
59043;BME280;44826;51.596;5.624;2023-07-29T16:10:06;100641.69;;;21.32;79.07
59043;BME280;44826;51.596;5.624;2023-07-29T16:12:31;100643.53;;;21.67;76.20
59043;BME280;44826;51.596;5.624;2023-07-29T16:15:01;100638.16;;;22.14;73.38
59043;BME280;44826;51.596;5.624;2023-07-29T16:17:27;100637.34;;;22.48;73.43
59043;BME280;44826;51.596;5.624;2023-07-29T16:19:54;100643.94;;;22.77;72.73
59043;BME280;44826;51.596;5.624;2023-07-29T16:22:20;100639.16;;;23.03;72.89
59043;BME280;44826;51.596;5.624;2023-07-29T16:24:45;100637.38;;;23.25;69.56
59043;BME280;44826;51.596;5.624;2023-07-29T16:27:11;100624.41;;;23.22;71.42
59043;BME280;44826;51.596;5.624;2023-07-29T16:29:36;100624.41;;;23.22;68.86
59043;BME280;44826;51.596;5.624;2023-07-29T16:32:01;100618.97;;;23.44;68.74
59043;BME280;44826;51.596;5.624;2023-07-29T16:34:27;100621.88;;;23.84;66.78
59043;BME280;44826;51.596;5.624;2023-07-29T16:36:52;100615.16;;;24.61;64.43
59043;BME280;44826;51.596;5.624;2023-07-29T16:39:17;100609.94;;;25.50;60.76
59043;BME280;44826;51.596;5.624;2023-07-29T16:41:42;100610.16;;;26.70;59.26
59043;BME280;44826;51.596;5.624;2023-07-29T16:44:08;100602.59;;;27.82;55.69
59043;BME280;44826;51.596;5.624;2023-07-29T16:46:34;100604.47;;;28.84;52.58
59043;BME280;44826;51.596;5.624;2023-07-29T16:48:59;100603.00;;;29.47;50.98
59043;BME280;44826;51.596;5.624;2023-07-29T16:51:24;100603.16;;;30.19;48.12
59043;BME280;44826;51.596;5.624;2023-07-29T16:53:49;100613.84;;;30.90;44.37
59043;BME280;44826;51.596;5.624;2023-07-29T16:56:18;100605.09;;;30.25;45.60
59043;BME280;44826;51.596;5.624;2023-07-29T16:58:43;100604.31;;;28.93;48.22
59043;BME280;44826;51.596;5.624;2023-07-29T17:01:08;100607.34;;;28.05;51.51
59043;BME280;44826;51.596;5.624;2023-07-29T17:03:34;100606.75;;;28.11;52.99
59043;BME280;44826;51.596;5.624;2023-07-29T17:05:59;100601.78;;;28.84;49.54
59043;BME280;44826;51.596;5.624;2023-07-29T17:08:24;100604.03;;;30.03;47.31
59043;BME280;44826;51.596;5.624;2023-07-29T17:10:50;100602.56;;;31.10;43.65
59043;BME280;44826;51.596;5.624;2023-07-29T17:13:15;100610.88;;;32.21;42.65
59043;BME280;44826;51.596;5.624;2023-07-29T17:15:40;100613.25;;;32.46;42.51
59043;BME280;44826;51.596;5.624;2023-07-29T17:18:06;100605.47;;;32.21;41.54
59043;BME280;44826;51.596;5.624;2023-07-29T17:20:31;100606.53;;;32.57;42.00
59043;BME280;44826;51.596;5.624;2023-07-29T17:22:56;100608.88;;;33.04;39.87
59043;BME280;44826;51.596;5.624;2023-07-29T17:25:21;100622.13;;;33.27;41.97
59043;BME280;44826;51.596;5.624;2023-07-29T17:27:48;100622.63;;;33.66;41.19
59043;BME280;44826;51.596;5.624;2023-07-29T17:30:14;100619.06;;;33.94;38.20
59043;BME280;44826;51.596;5.624;2023-07-29T17:32:39;100616.47;;;33.22;40.04
59043;BME280;44826;51.596;5.624;2023-07-29T17:35:04;100612.50;;;32.52;41.35
59043;BME280;44826;51.596;5.624;2023-07-29T17:37:30;100606.19;;;33.04;40.64
59043;BME280;44826;51.596;5.624;2023-07-29T17:39:55;100614.84;;;33.49;39.86
59043;BME280;44826;51.596;5.624;2023-07-29T17:42:21;100607.09;;;33.39;39.59
59043;BME280;44826;51.596;5.624;2023-07-29T17:44:46;100607.84;;;33.55;39.88
59043;BME280;44826;51.596;5.624;2023-07-29T17:47:11;100619.69;;;33.89;39.08
59043;BME280;44826;51.596;5.624;2023-07-29T17:49:36;100615.03;;;34.18;39.23
59043;BME280;44826;51.596;5.624;2023-07-29T17:52:05;100613.00;;;34.33;37.69
59043;BME280;44826;51.596;5.624;2023-07-29T17:54:41;100618.00;;;34.37;37.04
59043;BME280;44826;51.596;5.624;2023-07-29T17:57:06;100610.09;;;34.28;37.21
59043;BME280;44826;51.596;5.624;2023-07-29T17:59:32;100619.63;;;34.24;36.98
59043;BME280;44826;51.596;5.624;2023-07-29T18:01:58;100621.28;;;34.25;36.75
59043;BME280;44826;51.596;5.624;2023-07-29T18:04:23;100625.25;;;34.23;37.04
59043;BME280;44826;51.596;5.624;2023-07-29T18:06:49;100631.19;;;34.11;37.13
59043;BME280;44826;51.596;5.624;2023-07-29T18:09:14;100633.22;;;34.02;38.14
59043;BME280;44826;51.596;5.624;2023-07-29T18:11:39;100630.72;;;33.94;38.28
59043;BME280;44826;51.596;5.624;2023-07-29T18:14:07;100640.31;;;33.75;37.70
59043;BME280;44826;51.596;5.624;2023-07-29T18:16:32;100640.00;;;33.56;38.56
59043;BME280;44826;51.596;5.624;2023-07-29T18:18:57;100637.28;;;33.28;38.67
59043;BME280;44826;51.596;5.624;2023-07-29T18:21:22;100634.00;;;32.89;39.46
59043;BME280;44826;51.596;5.624;2023-07-29T18:23:48;100631.91;;;32.48;40.20
59043;BME280;44826;51.596;5.624;2023-07-29T18:26:13;100638.50;;;31.55;42.53
59043;BME280;44826;51.596;5.624;2023-07-29T18:28:39;100638.31;;;30.32;45.54
59043;BME280;44826;51.596;5.624;2023-07-29T18:31:04;100646.84;;;29.21;47.60
59043;BME280;44826;51.596;5.624;2023-07-29T18:33:30;100641.78;;;28.26;49.16
59043;BME280;44826;51.596;5.624;2023-07-29T18:35:55;100645.72;;;27.42;51.93
59043;BME280;44826;51.596;5.624;2023-07-29T18:38:21;100654.66;;;26.69;54.22
59043;BME280;44826;51.596;5.624;2023-07-29T18:40:47;100654.66;;;26.13;55.95
59043;BME280;44826;51.596;5.624;2023-07-29T18:43:12;100652.22;;;25.72;56.68
59043;BME280;44826;51.596;5.624;2023-07-29T18:45:37;100658.41;;;25.34;58.35